createdAt,value
2022-09-05T00:00:42.464Z,6.75
2022-09-05T00:01:50.717Z,7.68
2022-09-05T00:03:11.014Z,6.97
2022-09-05T00:04:24.363Z,6.78
2022-09-05T00:06:02.503Z,6.82
2022-09-05T00:07:37.447Z,8.10
2022-09-05T00:09:02.305Z,7.18
2022-09-05T00:10:35.844Z,6.90
2022-09-05T00:11:44.086Z,9.35
2022-09-05T00:12:48.273Z,7.22
2022-09-05T00:14:34.149Z,7.53
2022-09-05T00:16:02.136Z,7.20
2022-09-05T00:18:09.514Z,7.63
2022-09-05T00:24:22.172Z,8.20
2022-09-05T00:24:23.276Z,7.75
2022-09-05T00:24:31.788Z,6.90
2022-09-05T00:24:36.937Z,7.20
2022-09-05T00:25:31.848Z,7.72
2022-09-05T00:26:53.151Z,7.65
2022-09-05T00:28:02.057Z,7.18
2022-09-05T00:31:05.319Z,7.38
2022-09-05T00:31:54.778Z,7.22
2022-09-05T00:33:17.986Z,6.88
2022-09-05T00:34:47.087Z,7.40
2022-09-05T00:36:23.218Z,8.07
2022-09-05T00:37:39.627Z,7.15
2022-09-05T00:38:51.901Z,7.63
2022-09-05T00:40:18.711Z,8.85
2022-09-05T00:41:22.389Z,7.82
2022-09-05T00:42:25.382Z,6.85
2022-09-05T00:43:29.462Z,7.18
2022-09-05T00:44:34.934Z,9.65
2022-09-05T00:45:53.305Z,8.75
2022-09-05T00:47:11.028Z,8.00
2022-09-05T00:48:33.919Z,7.10
2022-09-05T00:49:53.789Z,7.07
2022-09-05T00:51:29.291Z,7.13
2022-09-05T00:52:50.542Z,7.18
2022-09-05T00:54:40.661Z,7.75
2022-09-05T00:56:04.460Z,7.15
2022-09-05T00:57:09.418Z,7.50
2022-09-05T00:58:59.201Z,7.22
2022-09-05T01:00:26.520Z,7.20
2022-09-05T01:01:45.798Z,7.05
2022-09-05T01:03:10.129Z,7.18
2022-09-05T01:04:39.514Z,8.50
2022-09-05T01:06:02.142Z,7.78
2022-09-05T01:07:13.161Z,7.57
2022-09-05T01:08:41.516Z,7.47
2022-09-05T01:10:04.897Z,7.10
2022-09-05T01:11:32.719Z,7.25
2022-09-05T01:12:55.242Z,7.65
2022-09-05T01:14:26.476Z,7.70
2022-09-05T01:15:32.715Z,7.28
2022-09-05T01:17:02.727Z,11.90
2022-09-05T01:18:25.561Z,7.28
2022-09-05T01:19:50.432Z,7.60
2022-09-05T01:21:15.246Z,7.53
2022-09-05T01:22:35.143Z,7.60
2022-09-05T01:23:49.394Z,7.38
2022-09-05T01:25:12.096Z,6.90
2022-09-05T01:26:38.956Z,6.88
2022-09-05T01:29:13.246Z,7.43
2022-09-05T01:29:46.053Z,7.38
2022-09-05T01:30:55.750Z,8.10
2022-09-05T01:32:19.797Z,6.97
2022-09-05T01:33:38.639Z,6.80
2022-09-05T01:35:18.038Z,7.70
2022-09-05T01:36:26.858Z,7.88
2022-09-05T01:37:54.239Z,7.35
2022-09-05T01:40:12.149Z,7.65
2022-09-05T01:40:49.651Z,8.20
2022-09-05T01:42:31.701Z,7.55
2022-09-05T01:44:02.179Z,7.30
2022-09-05T01:45:20.784Z,8.10
2022-09-05T01:46:39.401Z,7.25
2022-09-05T01:48:05.080Z,7.85
2022-09-05T01:49:26.225Z,8.52
2022-09-05T01:51:06.710Z,7.55
2022-09-05T01:53:00.321Z,7.55
2022-09-05T01:54:24.632Z,9.40
2022-09-05T01:56:04.074Z,7.93
2022-09-05T01:57:24.760Z,7.20
2022-09-05T01:58:54.013Z,7.50
2022-09-05T02:00:07.672Z,7.55
2022-09-05T02:01:41.739Z,8.32
2022-09-05T02:03:02.828Z,7.65
2022-09-05T02:04:26.347Z,10.65
2022-09-05T02:05:57.103Z,7.07
2022-09-05T02:07:30.992Z,7.95
2022-09-05T02:09:19.872Z,7.93
2022-09-05T02:10:40.768Z,7.63
2022-09-05T02:12:07.177Z,7.60
2022-09-05T02:13:30.928Z,8.25
2022-09-05T02:14:41.023Z,8.27
2022-09-05T02:15:59.381Z,7.80
2022-09-05T02:17:25.855Z,8.27
2022-09-05T02:18:54.286Z,7.97
2022-09-05T02:20:14.605Z,8.30
2022-09-05T02:21:56.908Z,7.65
2022-09-05T02:23:40.459Z,8.00
2022-09-05T02:24:41.382Z,8.55
2022-09-05T02:26:02.088Z,8.50
2022-09-05T02:27:53.503Z,9.60
2022-09-05T02:28:55.334Z,8.50
2022-09-05T02:30:22.282Z,8.65
2022-09-05T02:31:40.738Z,8.25
2022-09-05T02:32:52.373Z,7.95
2022-09-05T02:34:01.770Z,8.65
2022-09-05T02:35:31.505Z,8.30
2022-09-05T02:37:00.771Z,8.65
2022-09-05T02:39:09.207Z,9.60
2022-09-05T02:45:02.810Z,7.93
2022-09-05T02:45:05.998Z,9.02
2022-09-05T02:45:14.075Z,8.07
2022-09-05T02:45:14.651Z,8.02
2022-09-05T02:46:08.610Z,8.63
2022-09-05T02:47:23.553Z,9.98
2022-09-05T02:48:50.128Z,8.18
2022-09-05T02:53:19.706Z,8.82
2022-09-05T02:57:24.732Z,9.80
2022-09-05T02:57:26.790Z,9.27
2022-09-05T02:57:37.439Z,8.73
2022-09-05T02:57:38.163Z,8.18
2022-09-05T02:58:12.626Z,9.02
2022-09-05T02:59:57.217Z,8.18
2022-09-05T03:01:23.891Z,8.25
2022-09-05T03:03:00.863Z,8.20
2022-09-05T03:04:12.116Z,8.30
2022-09-05T03:05:24.028Z,8.20
2022-09-05T03:06:40.780Z,9.38
2022-09-05T03:08:11.961Z,8.45
2022-09-05T03:09:43.219Z,8.73
2022-09-05T03:11:07.008Z,8.63
2022-09-05T03:12:34.939Z,8.38
2022-09-05T03:14:05.018Z,8.40
2022-09-05T03:15:19.368Z,8.50
2022-09-05T03:17:02.853Z,8.55
2022-09-05T03:18:29.293Z,8.90
2022-09-05T03:20:06.557Z,8.95
2022-09-05T03:21:39.772Z,9.43
2022-09-05T03:23:03.945Z,8.63
2022-09-05T03:24:40.576Z,9.15
2022-09-05T03:26:19.689Z,9.43
2022-09-05T03:27:29.227Z,8.90
2022-09-05T03:29:03.431Z,9.73
2022-09-05T03:30:19.082Z,8.60
2022-09-05T03:31:46.265Z,8.77
2022-09-05T03:33:08.666Z,9.82
2022-09-05T03:34:43.310Z,11.48
2022-09-05T03:36:23.682Z,9.57
2022-09-05T03:37:44.459Z,8.93
2022-09-05T03:38:49.727Z,8.88
2022-09-05T03:40:18.643Z,9.13
2022-09-05T03:41:40.582Z,8.82
2022-09-05T03:43:07.136Z,9.52
2022-09-05T03:44:23.387Z,9.00
2022-09-05T03:45:45.726Z,9.15
2022-09-05T03:47:04.004Z,8.57
2022-09-05T03:48:28.029Z,9.23
2022-09-05T03:53:14.658Z,9.27
2022-09-05T03:57:07.577Z,8.90
2022-09-05T03:57:13.716Z,9.35
2022-09-05T03:57:14.835Z,10.30
2022-09-05T03:57:15.713Z,10.80
2022-09-05T03:58:41.947Z,11.32
2022-09-05T04:00:13.424Z,9.00
2022-09-05T04:03:32.972Z,9.85
2022-09-05T04:05:40.351Z,9.40
2022-09-05T04:08:15.724Z,11.07
2022-09-05T04:08:15.798Z,10.02
2022-09-05T04:08:17.617Z,9.20
2022-09-05T04:09:49.680Z,10.20
2022-09-05T04:10:57.192Z,9.73
2022-09-05T04:12:20.800Z,10.02
2022-09-05T04:13:37.768Z,10.00
2022-09-05T04:15:02.785Z,9.50
2022-09-05T04:16:16.874Z,9.77
2022-09-05T04:17:31.735Z,9.40
2022-09-05T04:18:39.208Z,9.90
2022-09-05T04:19:49.078Z,9.65
2022-09-05T04:21:01.607Z,10.40
2022-09-05T04:22:27.825Z,9.50
2022-09-05T04:23:48.250Z,9.32
2022-09-05T04:25:14.159Z,9.18
2022-09-05T04:26:46.449Z,12.20
2022-09-05T04:27:48.596Z,9.60
2022-09-05T04:29:00.001Z,9.77
2022-09-05T04:30:39.462Z,10.88
2022-09-05T04:32:15.463Z,9.43
2022-09-05T04:33:33.482Z,9.30
2022-09-05T04:35:10.193Z,10.15
2022-09-05T04:36:23.874Z,10.30
2022-09-05T04:37:49.537Z,11.65
2022-09-05T04:39:17.954Z,10.73
2022-09-05T04:40:42.575Z,10.13
2022-09-05T04:41:49.916Z,9.57
2022-09-05T04:42:52.229Z,10.02
2022-09-05T04:44:07.980Z,11.27
2022-09-05T04:45:24.047Z,10.00
2022-09-05T04:46:48.288Z,9.00
2022-09-05T04:47:54.256Z,9.77
2022-09-05T04:49:11.894Z,11.27
2022-09-05T04:50:23.499Z,9.73
2022-09-05T04:52:00.862Z,10.48
2022-09-05T04:53:37.478Z,9.75
2022-09-05T04:54:47.298Z,9.23
2022-09-05T04:55:55.927Z,9.73
2022-09-05T04:57:24.303Z,10.02
2022-09-05T05:00:04.178Z,10.82
2022-09-05T05:05:59.561Z,10.00
2022-09-05T05:06:02.224Z,10.73
2022-09-05T05:06:11.394Z,10.55
2022-09-05T05:06:16.466Z,10.48
2022-09-05T05:06:23.354Z,10.30
2022-09-05T05:07:22.583Z,11.50
2022-09-05T05:08:38.148Z,11.70
2022-09-05T05:11:01.131Z,10.68
2022-09-05T05:17:56.225Z,11.27
2022-09-05T05:17:57.610Z,11.13
2022-09-05T05:18:08.469Z,10.30
2022-09-05T05:18:12.356Z,11.18
2022-09-05T05:18:38.700Z,11.57
2022-09-05T05:19:35.314Z,9.30
2022-09-05T05:20:56.834Z,9.82
2022-09-05T05:22:03.399Z,9.25
2022-09-05T05:23:09.614Z,9.98
2022-09-05T05:24:21.800Z,10.70
2022-09-05T05:25:25.374Z,9.52
2022-09-05T05:26:48.247Z,9.88
2022-09-05T05:28:23.934Z,11.40
2022-09-05T05:29:39.386Z,9.82
2022-09-05T05:30:41.975Z,9.82
2022-09-05T05:31:54.505Z,11.25
2022-09-05T05:33:00.522Z,9.77
2022-09-05T05:34:24.793Z,10.98
2022-09-05T05:35:33.562Z,9.93
2022-09-05T05:36:55.254Z,9.88
2022-09-05T05:38:25.246Z,9.45
2022-09-05T05:39:29.985Z,10.25
2022-09-05T05:40:39.700Z,13.25
2022-09-05T05:41:55.545Z,10.07
2022-09-05T05:43:19.070Z,10.60
2022-09-05T05:44:35.355Z,10.40
2022-09-05T05:45:37.812Z,9.85
2022-09-05T05:46:44.624Z,10.48
2022-09-05T05:47:50.676Z,10.48
2022-09-05T05:49:04.006Z,10.68
2022-09-05T05:50:11.518Z,10.23
2022-09-05T05:52:02.011Z,9.95
2022-09-05T05:53:33.618Z,10.20
2022-09-05T05:55:50.752Z,10.68
2022-09-05T05:57:14.810Z,11.27
2022-09-05T05:58:48.259Z,12.05
2022-09-05T06:00:04.150Z,10.38
2022-09-05T06:01:56.772Z,10.23
2022-09-05T06:03:28.203Z,11.45
2022-09-05T06:05:07.445Z,9.98
2022-09-05T06:06:34.816Z,12.07
2022-09-05T06:10:39.065Z,10.68
2022-09-05T06:14:51.311Z,10.15
2022-09-05T06:15:01.052Z,10.70
2022-09-05T06:15:03.669Z,10.45
2022-09-05T06:15:53.064Z,11.25
2022-09-05T06:17:08.507Z,10.85
2022-09-05T06:18:28.147Z,12.35
2022-09-05T06:19:51.796Z,10.40
2022-09-05T06:22:06.238Z,9.68
2022-09-05T06:23:20.270Z,9.90
2022-09-05T06:25:17.365Z,9.95
2022-09-05T06:26:45.941Z,9.35
2022-09-05T06:28:19.002Z,11.88
2022-09-05T06:29:38.175Z,9.40
2022-09-05T06:30:57.191Z,9.68
2022-09-05T06:32:37.595Z,9.32
2022-09-05T06:34:04.104Z,9.38
2022-09-05T06:35:21.319Z,9.30
2022-09-05T06:36:45.429Z,9.70
2022-09-05T06:37:56.887Z,9.93
2022-09-05T06:39:37.164Z,10.25
2022-09-05T06:41:00.774Z,9.98
2022-09-05T06:42:30.715Z,9.63
2022-09-05T06:44:13.674Z,12.40
2022-09-05T06:45:28.485Z,9.75
2022-09-05T06:46:43.807Z,10.27
2022-09-05T06:48:44.493Z,10.95
2022-09-05T06:50:21.724Z,9.45
2022-09-05T06:51:48.038Z,9.50
2022-09-05T06:53:25.936Z,9.88
2022-09-05T06:55:00.108Z,9.43
2022-09-05T06:56:25.945Z,10.35
2022-09-05T06:57:56.553Z,10.90
2022-09-05T06:59:26.103Z,10.32
2022-09-05T07:00:35.570Z,9.95
2022-09-05T07:02:00.245Z,9.43
2022-09-05T07:03:22.754Z,11.20
2022-09-05T07:05:37.203Z,11.60
2022-09-05T07:06:52.378Z,10.65
2022-09-05T07:07:57.984Z,12.07
2022-09-05T07:09:46.551Z,10.02
2022-09-05T07:11:16.767Z,10.20
2022-09-05T07:13:11.033Z,9.52
2022-09-05T07:14:25.738Z,9.48
2022-09-05T07:15:52.806Z,9.73
2022-09-05T07:17:05.829Z,10.20
2022-09-05T07:18:19.170Z,15.52
2022-09-05T07:19:49.398Z,11.15
2022-09-05T07:21:26.312Z,10.23
2022-09-05T07:23:47.835Z,10.48
2022-09-05T07:24:53.742Z,12.38
2022-09-05T07:25:56.486Z,11.38
2022-09-05T07:27:00.180Z,9.88
2022-09-05T07:28:28.861Z,9.82
2022-09-05T07:29:36.591Z,9.75
2022-09-05T07:30:46.847Z,9.82
2022-09-05T07:31:53.025Z,9.40
2022-09-05T07:32:58.533Z,9.52
2022-09-05T07:34:21.085Z,9.60
2022-09-05T07:35:29.437Z,10.18
2022-09-05T07:36:47.015Z,9.88
2022-09-05T07:38:01.031Z,9.45
2022-09-05T07:39:27.835Z,9.82
2022-09-05T07:40:30.098Z,9.23
2022-09-05T07:41:39.555Z,10.02
2022-09-05T07:42:55.736Z,10.40
2022-09-05T07:44:18.146Z,10.25
2022-09-05T07:45:28.443Z,9.70
2022-09-05T07:46:38.877Z,12.43
2022-09-05T07:47:53.105Z,9.75
2022-09-05T07:49:02.884Z,10.15
2022-09-05T07:51:59.196Z,9.82
2022-09-05T07:56:48.918Z,9.80
2022-09-05T07:56:55.223Z,9.48
2022-09-05T07:56:56.542Z,10.15
2022-09-05T07:57:06.155Z,9.75
2022-09-05T07:57:50.616Z,10.23
2022-09-05T07:58:54.632Z,9.93
2022-09-05T08:00:06.537Z,11.45
2022-09-05T08:01:16.871Z,10.00
2022-09-05T08:02:19.859Z,9.55
2022-09-05T08:03:29.288Z,9.43
2022-09-05T08:04:34.529Z,8.40
2022-09-05T08:05:47.254Z,8.50
2022-09-05T08:07:46.045Z,8.70
2022-09-05T08:08:20.907Z,8.80
2022-09-05T08:10:05.875Z,8.35
2022-09-05T08:11:23.834Z,9.05
2022-09-05T08:13:22.780Z,8.23
2022-09-05T08:14:44.651Z,8.43
2022-09-05T08:16:13.824Z,8.38
2022-09-05T08:17:30.007Z,8.25
2022-09-05T08:18:51.443Z,8.23
2022-09-05T08:20:10.025Z,8.77
2022-09-05T08:21:27.762Z,8.63
2022-09-05T08:22:38.152Z,7.95
2022-09-05T08:24:14.375Z,8.23
2022-09-05T08:25:57.047Z,9.43
2022-09-05T08:27:23.894Z,9.50
2022-09-05T08:28:37.634Z,9.63
2022-09-05T08:29:46.171Z,9.60
2022-09-05T08:31:00.106Z,8.75
2022-09-05T08:32:28.664Z,8.80
2022-09-05T08:33:36.109Z,10.15
2022-09-05T08:34:44.611Z,8.57
2022-09-05T08:36:01.003Z,9.30
2022-09-05T08:37:05.423Z,9.65
2022-09-05T08:38:08.943Z,9.50
2022-09-05T08:39:13.016Z,10.07
2022-09-05T08:40:37.307Z,10.65
2022-09-05T08:42:05.948Z,9.57
2022-09-05T08:45:50.669Z,8.85
2022-09-05T08:46:40.904Z,8.70
2022-09-05T08:46:48.702Z,10.05
2022-09-05T08:48:16.898Z,9.45
2022-09-05T08:49:39.493Z,9.82
2022-09-05T08:51:08.780Z,9.48
2022-09-05T08:52:13.578Z,10.38
2022-09-05T08:53:49.992Z,9.40
2022-09-05T08:55:07.392Z,9.77
2022-09-05T08:56:38.597Z,9.90
2022-09-05T08:57:46.824Z,10.10
2022-09-05T08:59:27.948Z,9.43
2022-09-05T09:00:24.361Z,10.25
2022-09-05T09:02:46.660Z,9.90
2022-09-05T09:03:52.055Z,10.20
2022-09-05T09:05:14.372Z,9.50
2022-09-05T09:07:23.492Z,10.52
2022-09-05T09:08:48.578Z,9.65
2022-09-05T09:10:22.790Z,9.52
2022-09-05T09:11:41.061Z,10.23
2022-09-05T09:13:11.899Z,9.82
2022-09-05T09:14:35.978Z,9.32
2022-09-05T09:15:47.130Z,9.85
2022-09-05T09:17:20.658Z,10.10
2022-09-05T09:18:36.968Z,9.98
2022-09-05T09:19:46.413Z,9.55
2022-09-05T09:20:55.705Z,9.50
2022-09-05T09:22:03.717Z,9.55
2022-09-05T09:23:08.532Z,10.70
2022-09-05T09:25:15.436Z,9.25
2022-09-05T09:26:17.058Z,9.52
2022-09-05T09:28:48.034Z,9.55
2022-09-05T09:29:08.821Z,9.07
2022-09-05T09:30:13.794Z,9.40
2022-09-05T09:31:29.056Z,9.05
2022-09-05T09:32:43.718Z,9.13
2022-09-05T09:34:08.667Z,9.75
2022-09-05T09:35:20.358Z,8.93
2022-09-05T09:36:38.769Z,8.57
2022-09-05T09:38:12.014Z,8.75
2022-09-05T09:39:39.278Z,8.73
2022-09-05T09:41:12.603Z,8.77
2022-09-05T09:42:51.053Z,8.82
2022-09-05T09:44:09.447Z,8.48
2022-09-05T09:45:38.889Z,9.13
2022-09-05T09:46:44.381Z,9.15
2022-09-05T09:47:59.144Z,9.25
2022-09-05T09:49:23.134Z,9.27
2022-09-05T09:50:41.950Z,8.65
2022-09-05T09:52:26.176Z,9.02
2022-09-05T09:53:37.566Z,9.05
2022-09-05T09:55:41.154Z,8.75
2022-09-05T09:57:21.871Z,8.45
2022-09-05T09:58:36.797Z,8.02
2022-09-05T10:00:06.043Z,11.20
2022-09-05T10:01:36.385Z,9.07
2022-09-05T10:10:33.590Z,8.77
2022-09-05T10:10:35.683Z,9.07
2022-09-05T10:10:45.543Z,8.82
2022-09-05T10:10:48.646Z,8.88
2022-09-05T10:10:51.343Z,9.07
2022-09-05T10:11:55.044Z,8.27
2022-09-05T10:13:10.807Z,8.85
2022-09-05T10:14:50.646Z,10.30
2022-09-05T10:16:27.528Z,9.05
2022-09-05T10:17:48.703Z,8.93
2022-09-05T10:18:56.682Z,8.13
2022-09-05T10:20:29.412Z,7.95
2022-09-05T10:23:44.773Z,8.23
2022-09-05T10:25:12.165Z,7.85
2022-09-05T10:26:33.178Z,8.30
2022-09-05T10:27:49.848Z,7.40
2022-09-05T10:29:11.780Z,7.93
2022-09-05T10:31:58.588Z,8.00
2022-09-05T10:35:10.678Z,8.15
2022-09-05T10:35:23.379Z,8.13
2022-09-05T10:35:24.590Z,8.13
2022-09-05T10:36:31.979Z,8.13
2022-09-05T10:37:51.436Z,7.78
2022-09-05T10:39:15.399Z,7.85
2022-09-05T10:40:26.917Z,7.85
2022-09-05T10:41:44.725Z,7.75
2022-09-05T10:42:59.931Z,7.82
2022-09-05T10:44:05.526Z,11.20
2022-09-05T10:45:16.656Z,7.82
2022-09-05T10:46:49.587Z,7.75
2022-09-05T10:48:17.087Z,7.47
2022-09-05T10:49:27.056Z,7.53
2022-09-05T10:51:26.979Z,7.60
2022-09-05T10:52:39.875Z,8.02
2022-09-05T10:53:51.239Z,7.78
2022-09-05T10:55:14.689Z,7.95
2022-09-05T10:56:26.128Z,6.75
2022-09-05T10:57:56.895Z,6.97
2022-09-05T11:00:59.398Z,7.45
2022-09-05T11:02:27.668Z,7.05
2022-09-05T11:02:46.205Z,6.43
2022-09-05T11:04:00.648Z,6.35
2022-09-05T11:05:30.867Z,7.00
2022-09-05T11:06:42.779Z,7.13
2022-09-05T11:08:21.911Z,6.78
2022-09-05T11:09:57.069Z,7.63
2022-09-05T11:11:26.018Z,6.80
2022-09-05T11:12:57.959Z,6.75
2022-09-05T11:14:12.150Z,6.07
2022-09-05T11:16:10.268Z,6.18
2022-09-05T11:17:29.737Z,6.30
2022-09-05T11:18:57.113Z,6.22
2022-09-05T11:20:35.310Z,5.95
2022-09-05T11:22:22.050Z,6.22
2022-09-05T11:23:57.629Z,6.30
2022-09-05T11:25:05.377Z,6.97
2022-09-05T11:26:34.052Z,6.72
2022-09-05T11:27:41.088Z,6.03
2022-09-05T11:29:00.754Z,7.80
2022-09-05T11:30:30.980Z,6.00
2022-09-05T11:34:12.808Z,5.50
2022-09-05T11:39:46.769Z,5.93
2022-09-05T11:39:59.173Z,6.15
2022-09-05T11:40:05.888Z,5.18
2022-09-05T11:40:10.267Z,5.93
2022-09-05T11:40:35.371Z,5.10
2022-09-05T11:42:01.822Z,5.50
2022-09-05T11:43:48.975Z,4.95
2022-09-05T11:45:12.031Z,5.30
2022-09-05T11:46:38.807Z,5.75
2022-09-05T11:48:18.606Z,5.57
2022-09-05T11:49:59.431Z,5.47
2022-09-05T11:51:33.355Z,7.07
2022-09-05T11:52:55.190Z,5.70
2022-09-05T11:54:20.026Z,5.72
2022-09-05T11:55:34.889Z,5.60
2022-09-05T11:57:32.459Z,5.65
2022-09-05T11:59:13.840Z,5.90
2022-09-05T12:00:33.041Z,5.85
2022-09-05T12:02:16.909Z,5.40
2022-09-05T12:04:00.022Z,5.93
2022-09-05T12:05:49.031Z,5.70
2022-09-05T12:07:27.036Z,5.30
2022-09-05T12:08:39.913Z,6.10
2022-09-05T12:10:00.794Z,5.78
2022-09-05T12:11:14.406Z,7.03
2022-09-05T12:12:38.997Z,5.38
2022-09-05T12:13:48.859Z,5.60
2022-09-05T12:15:24.122Z,5.55
2022-09-05T12:16:45.150Z,5.70
2022-09-05T12:18:12.612Z,5.88
2022-09-05T12:19:40.396Z,5.50
2022-09-05T12:21:01.064Z,5.45
2022-09-05T12:24:24.839Z,5.88
2022-09-05T12:27:40.842Z,5.30
2022-09-05T12:29:34.039Z,11.05
2022-09-05T12:30:16.074Z,5.93
2022-09-05T12:32:49.478Z,6.47
2022-09-05T12:36:02.466Z,5.85
2022-09-05T12:36:11.793Z,6.15
2022-09-05T12:40:18.406Z,6.68
2022-09-05T12:40:38.425Z,6.07
2022-09-05T12:40:56.402Z,5.95
2022-09-05T12:41:41.391Z,5.35
2022-09-05T12:41:41.715Z,5.57
2022-09-05T12:41:43.319Z,6.22
2022-09-05T12:43:39.693Z,5.88
2022-09-05T12:44:41.328Z,6.60
2022-09-05T12:45:50.441Z,6.00
2022-09-05T12:47:18.645Z,6.28
2022-09-05T12:48:39.303Z,6.13
2022-09-05T12:50:15.283Z,6.10
2022-09-05T12:51:46.039Z,7.35
2022-09-05T12:52:56.061Z,6.95
2022-09-05T12:54:27.864Z,6.93
2022-09-05T12:55:41.351Z,6.40
2022-09-05T12:58:09.039Z,6.40
2022-09-05T13:03:01.482Z,6.75
2022-09-05T13:03:05.380Z,6.53
2022-09-05T13:03:05.715Z,6.38
2022-09-05T13:03:11.271Z,6.25
2022-09-05T13:04:31.104Z,5.82
2022-09-05T13:06:24.969Z,7.43
2022-09-05T13:07:50.679Z,5.90
2022-09-05T13:09:00.821Z,5.70
2022-09-05T13:14:49.000Z,5.95
2022-09-05T13:14:53.293Z,5.43
2022-09-05T13:14:59.360Z,5.88
2022-09-05T13:15:22.688Z,5.90
2022-09-05T13:17:05.698Z,5.78
2022-09-05T13:18:16.925Z,6.15
2022-09-05T13:19:30.329Z,5.70
2022-09-05T13:20:51.833Z,5.90
2022-09-05T13:21:55.647Z,5.53
2022-09-05T13:23:03.523Z,6.18
2022-09-05T13:24:12.315Z,5.95
2022-09-05T13:25:25.477Z,5.72
2022-09-05T13:26:44.455Z,8.65
2022-09-05T13:27:56.883Z,6.38
2022-09-05T13:29:12.023Z,6.00
2022-09-05T13:35:27.126Z,5.70
2022-09-05T13:38:00.412Z,6.93
2022-09-05T13:38:04.233Z,7.57
2022-09-05T13:38:04.485Z,6.03
2022-09-05T13:38:11.032Z,6.15
2022-09-05T13:38:14.608Z,6.28
2022-09-05T13:39:11.652Z,7.07
2022-09-05T13:40:23.498Z,6.70
2022-09-05T13:41:59.622Z,6.25
2022-09-05T13:43:28.186Z,5.82
2022-09-05T13:44:37.604Z,6.05
2022-09-05T13:46:17.342Z,6.00
2022-09-05T13:47:51.071Z,6.00
2022-09-05T13:49:29.339Z,5.25
2022-09-05T13:50:43.895Z,5.90
2022-09-05T13:51:54.025Z,5.13
2022-09-05T13:53:02.465Z,5.22
2022-09-05T13:54:38.579Z,6.40
2022-09-05T13:55:54.183Z,5.47
2022-09-05T13:57:16.482Z,5.75
2022-09-05T13:58:40.045Z,6.25
2022-09-05T14:00:03.464Z,6.03
2022-09-05T14:01:25.430Z,6.30
2022-09-05T14:05:05.803Z,6.63
2022-09-05T14:06:45.040Z,6.90
2022-09-05T14:08:18.143Z,7.28
2022-09-05T14:09:39.921Z,6.60
2022-09-05T14:10:57.893Z,6.63
2022-09-05T14:12:06.104Z,6.80
2022-09-05T14:13:24.286Z,6.70
2022-09-05T14:16:14.783Z,6.60
2022-09-05T14:19:03.036Z,6.53
2022-09-05T14:20:28.618Z,6.50
2022-09-05T14:21:36.859Z,6.43
2022-09-05T14:22:55.488Z,6.40
2022-09-05T14:24:27.518Z,6.10
2022-09-05T14:25:38.897Z,5.97
2022-09-05T14:26:47.955Z,5.88
2022-09-05T14:27:51.236Z,6.88
2022-09-05T14:29:14.445Z,6.90
2022-09-05T14:32:00.965Z,6.60
2022-09-05T14:36:09.363Z,6.75
2022-09-05T14:37:40.801Z,6.50
2022-09-05T14:37:50.881Z,6.50
2022-09-05T14:37:52.110Z,7.18
2022-09-05T14:39:31.534Z,6.05
2022-09-05T14:41:11.306Z,6.60
2022-09-05T14:42:24.061Z,6.80
2022-09-05T14:43:47.988Z,6.30
2022-09-05T14:45:02.122Z,6.10
2022-09-05T14:46:29.117Z,6.40
2022-09-05T14:48:14.268Z,6.35
2022-09-05T14:49:37.701Z,6.70
2022-09-05T14:51:08.260Z,6.82
2022-09-05T14:52:19.323Z,7.30
2022-09-05T14:56:39.908Z,8.95
2022-09-05T15:02:45.297Z,6.53
2022-09-05T15:02:45.893Z,6.80
2022-09-05T15:02:51.033Z,6.78
2022-09-05T15:02:57.667Z,7.55
2022-09-05T15:05:13.978Z,6.32
2022-09-05T15:06:21.517Z,6.70
2022-09-05T15:07:53.614Z,6.57
2022-09-05T15:11:29.550Z,6.22
2022-09-05T15:12:24.881Z,6.72
2022-09-05T15:12:31.245Z,6.65
2022-09-05T15:13:44.433Z,6.35
2022-09-05T15:15:18.213Z,6.85
2022-09-05T15:16:24.390Z,6.93
2022-09-05T15:17:28.517Z,6.82
2022-09-05T15:18:36.872Z,6.40
2022-09-05T15:20:05.645Z,6.72
2022-09-05T15:21:33.602Z,6.63
2022-09-05T15:22:41.975Z,6.70
2022-09-05T15:23:57.988Z,7.05
2022-09-05T15:25:16.924Z,6.63
2022-09-05T15:26:25.581Z,6.97
2022-09-05T15:27:31.198Z,6.68
2022-09-05T15:28:43.032Z,7.85
2022-09-05T15:29:54.706Z,6.80
2022-09-05T15:31:01.066Z,7.30
2022-09-05T15:32:22.683Z,6.78
2022-09-05T15:33:28.792Z,6.43
2022-09-05T15:34:33.011Z,6.90
2022-09-05T15:35:44.071Z,7.25
2022-09-05T15:36:48.653Z,7.13
2022-09-05T15:37:50.977Z,7.15
2022-09-05T15:38:54.781Z,7.00
2022-09-05T15:40:03.685Z,6.78
2022-09-05T15:41:23.794Z,7.10
2022-09-05T15:42:31.320Z,6.43
2022-09-05T15:43:51.963Z,8.15
2022-09-05T15:45:16.778Z,6.53
2022-09-05T15:46:59.803Z,6.43
2022-09-05T15:48:24.099Z,7.07
2022-09-05T15:49:34.797Z,6.53
2022-09-05T15:50:42.016Z,6.45
2022-09-05T15:51:44.673Z,6.20
2022-09-05T15:52:55.269Z,6.07
2022-09-05T15:53:58.631Z,6.57
2022-09-05T15:55:10.933Z,6.50
2022-09-05T15:56:17.530Z,6.50
2022-09-05T15:57:28.973Z,6.38
2022-09-05T15:58:54.066Z,6.63
2022-09-05T16:00:00.375Z,6.47
2022-09-05T16:01:12.987Z,6.45
2022-09-05T16:02:50.096Z,6.78
2022-09-05T16:10:26.744Z,6.95
2022-09-05T16:10:30.223Z,7.47
2022-09-05T16:10:34.371Z,6.72
2022-09-05T16:10:34.563Z,6.00
2022-09-05T16:10:59.403Z,6.93
2022-09-05T16:12:08.859Z,5.47
2022-09-05T16:13:14.035Z,5.88
2022-09-05T16:14:49.932Z,7.45
2022-09-05T16:21:21.984Z,5.85
2022-09-05T16:23:14.208Z,5.97
2022-09-05T16:23:14.246Z,6.20
2022-09-05T16:23:23.852Z,6.22
2022-09-05T16:23:27.787Z,6.40
2022-09-05T16:23:53.331Z,6.72
2022-09-05T16:25:03.081Z,6.75
2022-09-05T16:26:25.397Z,6.90
2022-09-05T16:28:01.022Z,6.75
2022-09-05T16:29:28.221Z,7.70
2022-09-05T16:30:34.064Z,6.72
2022-09-05T16:31:45.718Z,7.25
2022-09-05T16:32:53.910Z,7.85
2022-09-05T16:33:59.226Z,6.70
2022-09-05T16:35:05.197Z,7.82
2022-09-05T16:36:27.194Z,7.78
2022-09-05T16:37:37.004Z,13.88
2022-09-05T16:39:08.713Z,7.60
2022-09-05T16:40:26.067Z,7.20
2022-09-05T16:41:45.736Z,7.72
2022-09-05T16:42:53.623Z,7.88
2022-09-05T16:44:00.707Z,8.27
2022-09-05T16:45:20.989Z,8.35
2022-09-05T16:46:37.690Z,7.63
2022-09-05T16:47:57.721Z,7.72
2022-09-05T16:49:12.245Z,8.05
2022-09-05T16:50:34.322Z,8.63
2022-09-05T16:51:50.863Z,8.75
2022-09-05T16:53:32.782Z,8.73
2022-09-05T16:55:11.474Z,8.90
2022-09-05T16:56:17.663Z,8.45
2022-09-05T16:57:35.870Z,8.23
2022-09-05T16:58:49.512Z,8.02
2022-09-05T16:59:51.835Z,8.32
2022-09-05T17:01:16.670Z,7.75
2022-09-05T17:02:54.504Z,8.27
2022-09-05T17:04:06.341Z,7.72
2022-09-05T17:05:32.571Z,8.02
2022-09-05T17:06:45.117Z,8.18
2022-09-05T17:08:15.595Z,7.55
2022-09-05T17:09:24.901Z,7.90
2022-09-05T17:10:32.844Z,7.47
2022-09-05T17:11:55.991Z,7.25
2022-09-05T17:13:06.199Z,7.78
2022-09-05T17:14:15.508Z,8.90
2022-09-05T17:15:23.935Z,7.88
2022-09-05T17:16:49.810Z,7.13
2022-09-05T17:18:22.756Z,7.57
2022-09-05T17:19:33.669Z,7.82
2022-09-05T17:20:46.339Z,8.38
2022-09-05T17:28:50.050Z,7.78
2022-09-05T17:29:15.722Z,8.25
2022-09-05T17:29:29.831Z,7.70
2022-09-05T17:29:33.326Z,7.72
2022-09-05T17:29:37.836Z,8.00
2022-09-05T17:32:53.345Z,7.65
2022-09-05T17:33:56.381Z,8.13
2022-09-05T17:34:58.771Z,7.93
2022-09-05T17:36:39.253Z,8.05
2022-09-05T17:38:12.438Z,7.75
2022-09-05T17:39:44.655Z,7.97
2022-09-05T17:41:22.270Z,8.73
2022-09-05T17:42:56.608Z,7.82
2022-09-05T17:44:18.086Z,7.88
2022-09-05T17:45:29.979Z,8.50
2022-09-05T17:46:34.566Z,8.80
2022-09-05T17:47:51.861Z,8.25
2022-09-05T17:49:17.779Z,8.50
2022-09-05T17:50:27.998Z,8.32
2022-09-05T17:51:35.793Z,8.52
2022-09-05T17:53:25.666Z,8.05
2022-09-05T17:54:33.767Z,7.88
2022-09-05T17:55:40.350Z,8.43
2022-09-05T17:56:44.300Z,9.25
2022-09-05T17:57:48.577Z,8.45
2022-09-05T17:59:17.806Z,8.60
2022-09-05T18:00:43.593Z,8.90
2022-09-05T18:02:04.665Z,8.93
2022-09-05T18:03:06.939Z,8.75
2022-09-05T18:04:17.666Z,9.20
2022-09-05T18:06:02.783Z,8.90
2022-09-05T18:07:25.887Z,9.18
2022-09-05T18:08:46.297Z,9.20
2022-09-05T18:10:14.537Z,8.95
2022-09-05T18:11:25.065Z,10.65
2022-09-05T18:14:03.227Z,9.68
2022-09-05T18:15:27.601Z,8.68
2022-09-05T18:16:31.356Z,8.65
2022-09-05T18:17:38.210Z,9.23
2022-09-05T18:20:14.036Z,9.40
2022-09-05T18:23:26.394Z,10.82
2022-09-05T18:24:32.655Z,11.20
2022-09-05T18:25:49.624Z,11.30
2022-09-05T18:26:56.160Z,10.90
2022-09-05T18:28:56.012Z,10.18
2022-09-05T18:30:08.386Z,10.63
2022-09-05T18:31:41.599Z,9.70
2022-09-05T18:33:53.874Z,9.95
2022-09-05T18:34:34.489Z,10.45
2022-09-05T18:36:05.797Z,9.73
2022-09-05T18:37:36.374Z,9.38
2022-09-05T18:38:51.554Z,10.23
2022-09-05T18:40:09.714Z,9.02
2022-09-05T18:41:28.241Z,9.52
2022-09-05T18:42:42.824Z,10.27
2022-09-05T18:44:13.992Z,9.15
2022-09-05T18:45:32.878Z,9.57
2022-09-05T18:46:46.282Z,9.68
2022-09-05T18:48:01.534Z,9.30
2022-09-05T18:50:21.591Z,10.60
2022-09-05T18:50:44.297Z,10.00
2022-09-05T18:52:14.508Z,10.13
2022-09-05T18:53:25.413Z,9.40
2022-09-05T18:54:30.339Z,9.82